Home > Products > Valid Products > TAF

000
FTUS46 KLOX 292300
TAFPRB
TAF
KPRB 292336Z 3000/3024 20012KT P6SM SCT150
     FM300200 29010KT P6SM SCT200
     FM300700 VRB03KT P6SM SCT200
     FM302000 28008KT P6SM SKC
     FM302200 20014KT P6SM SKC=



000
FTUS46 KLOX 292300
TAFBUR
TAF
KBUR 292336Z 3000/3024 17008KT P6SM SCT150 BKN250
     FM300400 13007KT P6SM SCT150 BKN250
     FM301400 VRB03KT P6SM SCT150 BKN250
     FM301800 14005KT P6SM SCT250
     FM302100 17008KT P6SM SCT250=



000
FTUS46 KLOX 292300
TAFPMD
TAF
KPMD 292336Z 3000/3024 28017G23KT P6SM SCT150 BKN250
     FM300500 23012KT P6SM SCT150 BKN250
     FM301400 27008KT P6SM SCT150 BKN250
     FM302000 28012KT P6SM SCT250
     FM302300 26015G22KT P6SM SCT250=



000
FTUS46 KLOX 292300
TAFWJF
TAF
KWJF 292336Z 3000/3024 30015G25KT P6SM SCT150 BKN250
     FM300300 25015KT P6SM SCT150 BKN250
     FM300900 24010KT P6SM SCT150 BKN250
     FM301800 26014KT P6SM BKN250
     FM302100 26018G24KT P6SM SCT250=



000
FTUS46 KLOX 292300
TAFLAX
TAF
KLAX 292336Z 3000/3106 26011KT P6SM SCT150 BKN250
     FM300400 25007KT P6SM SCT150 BKN250
     FM300900 VRB03KT P6SM SCT015 BKN250
     FM301400 VRB03KT 4SM BR SCT150 BKN250
     FM301800 25008KT 6SM HZ SCT250
     FM302100 25011KT P6SM SCT250
     FM310400 26008KT P6SM SCT250=



000
FTUS46 KLOX 292300
TAFSMX
TAF
KSMX 292336Z 3000/3024 30011KT P6SM SCT150 BKN250
     FM300500 VRB03KT P6SM BKN005
     FM300800 VRB03KT 2SM BR OVC003
     FM301200 VRB03KT 1/4SM FG VV002
     FM301530 VRB03KT 2SM BR BKN005
     FM301800 28005KT P6SM SCT250
     FM302000 29011KT P6SM SCT250=



000
FTUS46 KLOX 292300
TAFLGB
TAF
KLGB 292336Z 3000/3024 30008KT P6SM SCT150 BKN250
     FM300700 16004KT P6SM SCT150 BKN250
     FM301800 19005KT P6SM BKN250
     FM302100 21008KT P6SM SCT250=



000
FTUS46 KLOX 292300
TAFSBP
TAF
KSBP 292336Z 3000/3024 31015KT P6SM SCT150
     FM300400 VRB03KT P6SM SCT150
     FM300700 VRB03KT P6SM OVC005
     FM301300 VRB03KT 5SM BR OVC004
     FM301530 VRB03KT P6SM SCT006
     FM301800 28005KT P6SM SCT250
     FM302100 29011KT P6SM SCT250=



000
FTUS46 KLOX 292300
TAFSBA
TAF
KSBA 292336Z 3000/3024 25010KT P6SM SCT150 BKN250
     FM300400 13006KT P6SM SCT150 BKN250
     FM301300 VRB03KT P6SM SCT004 BKN200
     FM301730 16006KT P6SM BKN250
     FM302100 25008KT P6SM BKN250=



000
FTUS46 KLOX 292300
TAFVNY
TAF
KVNY 292336Z 3000/3024 14010KT P6SM SCT150 BKN250
     FM300300 12007KT P6SM SCT150 BKN250
     FM300900 VRB03KT P6SM SCT150 BKN250
     FM301800 08006KT P6SM SCT250
     FM302100 14009KT P6SM SCT250=



000
FTUS46 KLOX 292100 AAA
TAFSBP
TAF AMD
KSBP 292107Z 2921/3018 31015KT P6SM SCT150
     FM300400 VRB03KT P6SM SCT150
     FM300700 VRB03KT P6SM OVC005
     FM301300 VRB03KT 5SM BR OVC004
     FM301530 VRB03KT P6SM SCT006=



000
FTUS46 KLOX 292000 AAA
TAFLAX
TAF AMD
KLAX 292059Z 2921/3024 26012KT P6SM SCT150 BKN250
     FM300300 25006KT P6SM SCT150 BKN250
     FM301000 VRB03KT 6SM BR SCT007 BKN150
     FM302000 25010KT P6SM SCT150 BKN250=



000
FTUS46 KLOX 292000 AAA
TAFPRB
TAF AMD
KPRB 292003Z 2920/3018 VRB03KT P6SM SCT150
     FM292300 29010KT P6SM SCT200
     FM300500 VRB03KT P6SM SCT200=



000
FTUS46 KLOX 291700 AAA
TAFSMX
TAF AMD
KSMX 291759Z 2918/3018 VRB05KT P6SM SCT008
     FM292000 30010KT P6SM SCT008
     FM300400 VRB03KT P6SM BKN005
     FM300800 VRB03KT 2SM BR OVC003
     FM301200 VRB03KT 1/4SM FG VV002
     FM301530 VRB03KT 2SM BR BKN005=



000
FTUS46 KLOX 291700 RRA
TAFSBA
TAF
KSBA 291740Z 2918/3018 16007KT P6SM SCT200
     FM292100 25010KT P6SM SCT200
     FM300200 VRB03KT P6SM SCT200
     FM301300 VRB03KT P6SM SCT004
     FM301730 16007KT P6SM SCT004=



000
FTUS46 KLOX 291700
TAFPRB
TAF
KPRB 291738Z 2918/3018 VRB03KT P6SM SCT150
     FM292000 29012KT P6SM SCT200
     FM300500 VRB03KT P6SM SCT200=



000
FTUS46 KLOX 291700
TAFSMX
TAF
KSMX 291738Z 2918/3018 VRB05KT 6SM BR OVC006
     FM292000 30010KT P6SM SCT006
     FM300400 VRB03KT P6SM BKN005
     FM300800 VRB03KT 2SM BR OVC003
     FM301200 VRB03KT 1/4SM FG VV002
     FM301530 VRB03KT 2SM BR BKN005=



000
FTUS46 KLOX 291700
TAFSBP
TAF
KSBP 291738Z 2918/3018 VRB03KT P6SM SCT004
     FM292000 29006KT P6SM SCT006
     FM292200 31012KT P6SM SKC
     FM300400 VRB03KT P6SM SKC
     FM300700 VRB03KT P6SM OVC005
     FM301300 VRB03KT 5SM BR OVC004
     FM301530 VRB03KT P6SM SCT006=



000
FTUS46 KLOX 291700
TAFWJF
TAF
KWJF 291735Z 2918/3018 VRB03KT P6SM SCT200
     FM292100 27008KT P6SM SCT200
     FM292300 25015G25KT P6SM SCT200
     FM300400 25012KT P6SM SCT200
     FM301000 VRB05KT P6SM BKN200=



000
FTUS46 KLOX 291700
TAFVNY
TAF
KVNY 291735Z 2918/3018 VRB05KT P6SM SCT150 SCT200
     FM292100 14010KT P6SM SCT150 SCT200
     FM300400 VRB03KT P6SM SCT150 BKN200=



000
FTUS46 KLOX 291700
TAFLAX
TAF
KLAX 291735Z 2918/3024 25006KT P6SM SCT150 SCT200
     FM292000 25012KT P6SM SCT150 SCT200
     FM300300 25006KT P6SM SCT150 SCT200
     FM301000 VRB03KT 6SM BR SCT007 BKN150
     FM302000 25010KT P6SM SCT150 BKN200=



000
FTUS46 KLOX 291700
TAFLGB
TAF
KLGB 291735Z 2918/3018 VRB03KT P6SM SCT150 SCT200
     FM292000 20008KT P6SM SCT150 SCT200
     FM292300 30008KT P6SM SCT150 SCT200
     FM300500 VRB03KT P6SM SCT150 BKN200
     FM301000 VRB03KT 6SM BR SCT007 BKN150=



000
FTUS46 KLOX 291700
TAFBUR
TAF
KBUR 291735Z 2918/3018 VRB05KT P6SM SCT150 SCT200
     FM292000 17010KT P6SM SCT150 SCT200
     FM300500 VRB03KT P6SM SCT150 BKN200=



000
FTUS46 KLOX 291700
TAFPMD
TAF
KPMD 291735Z 2918/3018 VRB05KT P6SM SCT200
     FM292000 26008KT P6SM SCT200
     FM292200 25015G25KT P6SM SCT200
     FM300400 25015KT P6SM SCT200
     FM300900 25007KT P6SM BKN200
     FM301300 VRB05KT P6SM BKN200=



000
FTUS46 KLOX 291600 AAD
TAFSBP
TAF AMD
KSBP 291614Z 2916/3012 VRB03KT P6SM SCT004
     FM291800 29006KT P6SM SCT006
     FM292100 31012KT P6SM SKC
     FM300400 VRB03KT P6SM SKC
     FM300700 VRB03KT P6SM OVC005=



000
FTUS46 KLOX 291500 AAC
TAFSBP
TAF AMD
KSBP 291511Z 2915/3012 VRB03KT P6SM SCT004
      TEMPO 2915/2917 BKN004
     FM291800 29006KT P6SM SCT006
     FM292100 31012KT P6SM SKC
     FM300400 VRB03KT P6SM SKC
     FM300700 VRB03KT P6SM OVC005=



000
FTUS46 KLOX 291500 AAA
TAFLAX
TAF AMD
KLAX 291502Z 2915/3018 25006KT P6SM SCT150 SCT200
     FM292000 25012KT P6SM SKC
     FM300300 25006KT P6SM SKC
     FM301000 VRB03KT P6SM BKN007
     FM301600 VRB03KT P6SM SKC=



000
FTUS46 KLOX 291500 AAC
TAFSMX
TAF AMD
KSMX 291501Z 2915/3012 VRB03KT 1/4SM FG VV002
     FM291530 VRB03KT 2SM BR BKN005
     FM291800 28006KT P6SM SKC
     FM292000 30012KT P6SM SKC
     FM300400 VRB03KT P6SM BKN005
     FM300800 VRB03KT 2SM BR OVC003=



000
FTUS46 KLOX 291400 AAB
TAFSBA
TAF AMD
KSBA 291401Z 2914/3012 11006KT 6SM BR SCT005
     FM291600 16007KT P6SM SCT200
     FM292100 25010KT P6SM SCT200
     FM300200 VRB03KT P6SM SCT200=



000
FTUS46 KLOX 291300 AAB
TAFSMX
TAF AMD
KSMX 291351Z 2914/3012 VRB03KT 1/4SM FG VV002
     FM291500 VRB03KT 4SM BR BKN005
     FM291700 28006KT P6SM SKC
     FM292000 30012KT P6SM SKC
     FM300400 VRB03KT P6SM BKN005
     FM300800 VRB03KT 2SM BR OVC003=



000
FTUS46 KLOX 291300 AAB
TAFSBP
TAF AMD
KSBP 291328Z 2913/3012 VRB03KT P6SM BKN004
     FM291600 VRB03KT P6SM SCT008
     FM291800 29006KT P6SM SKC
     FM292100 31012KT P6SM SKC
     FM300400 VRB03KT P6SM SKC
     FM300700 VRB03KT P6SM OVC005=



000
FTUS46 KLOX 291300 AAA
TAFSMX
TAF AMD
KSMX 291307Z 2913/3012 VRB03KT 1SM BR OVC002
     FM291500 VRB03KT 4SM BR BKN005
     FM291700 28006KT P6SM SKC
     FM292000 30012KT P6SM SKC
     FM300400 VRB03KT P6SM BKN005
     FM300800 VRB03KT 2SM BR OVC003=



000
FTUS46 KLOX 291300 AAA
TAFSBP
TAF AMD
KSBP 291306Z 2913/3012 VRB03KT P6SM SCT008
     FM291800 29006KT P6SM SKC
     FM292100 31012KT P6SM SKC
     FM300400 VRB03KT P6SM SKC
     FM300700 VRB03KT P6SM OVC005=



000
FTUS46 KLOX 291300 AAA
TAFSBA
TAF AMD
KSBA 291305Z 2913/3012 11006KT P6SM BKN005
     FM291600 16007KT P6SM SCT200
     FM292100 25010KT P6SM SCT200
     FM300200 VRB03KT P6SM SCT200=



000
FTUS46 KLOX 291100
TAFBUR
TAF
KBUR 291128Z 2912/3012 VRB03KT P6SM SCT150
     FM291800 17010KT P6SM SKC
     FM300500 VRB03KT P6SM SKC=



000
FTUS46 KLOX 291100
TAFWJF
TAF
KWJF 291128Z 2912/3012 VRB03KT P6SM SCT120
     FM291800 27008KT P6SM SCT200
     FM292200 25015G25KT P6SM SCT200
     FM300400 25015KT P6SM SCT200
     FM300900 25007KT P6SM SCT200=



000
FTUS46 KLOX 291100
TAFSBP
TAF
KSBP 291128Z 2912/3012 VRB03KT P6SM OVC006
     FM291600 VRB03KT P6SM SCT008
     FM291800 29006KT P6SM SKC
     FM292100 31012KT P6SM SKC
     FM300400 VRB03KT P6SM SKC
     FM300700 VRB03KT P6SM OVC005=



000
FTUS46 KLOX 291100
TAFSBA
TAF
KSBA 291128Z 2912/3012 VRB03KT P6SM SKC
     FM291600 16007KT P6SM SCT200
     FM292100 25010KT P6SM SCT200
     FM300200 VRB03KT P6SM SCT200=



000
FTUS46 KLOX 291100
TAFPMD
TAF
KPMD 291128Z 2912/3012 21007KT P6SM SCT120
     FM291800 26008KT P6SM SCT200
     FM292200 25015G25KT P6SM SCT200
     FM300400 25015KT P6SM SCT200
     FM300900 25007KT P6SM SCT200=



000
FTUS46 KLOX 291100
TAFVNY
TAF
KVNY 291128Z 2912/3012 VRB03KT P6SM SCT150
     FM291800 14010KT P6SM SKC
     FM300400 VRB03KT P6SM SKC=



000
FTUS46 KLOX 291100
TAFLAX
TAF
KLAX 291128Z 2912/3018 VRB03KT P6SM SCT200
     FM292000 25012KT P6SM SKC
     FM300300 25006KT P6SM SKC
     FM301000 VRB03KT P6SM BKN007
     FM301600 VRB03KT P6SM SKC=



000
FTUS46 KLOX 291100
TAFPRB
TAF
KPRB 291128Z 2912/3012 VRB03KT P6SM SCT150
     FM292000 29012KT P6SM SCT200
     FM300500 VRB03KT P6SM SCT200=



000
FTUS46 KLOX 291100
TAFSMX
TAF
KSMX 291128Z 2912/3012 VRB03KT 5SM BR OVC004
     FM291700 28006KT P6SM SKC
     FM292000 30012KT P6SM SKC
     FM300400 VRB03KT P6SM BKN005
     FM300800 VRB03KT 2SM BR OVC003=



000
FTUS46 KLOX 291100
TAFLGB
TAF
KLGB 291128Z 2912/3012 VRB03KT P6SM SCT150
     FM291900 20008KT P6SM SKC
     FM292300 30008KT P6SM SKC
     FM300500 VRB03KT P6SM SKC
     FM301000 VRB03KT P6SM BKN007=



000
FTUS46 KLOX 291000 AAA
TAFSBP
TAF AMD
KSBP 291045Z 2911/3006 VRB03KT P6SM BKN006
     FM291200 VRB03KT 4SM BR BKN004
     FM291600 VRB03KT P6SM SCT008
     FM291800 29006KT P6SM SKC
     FM292100 31012KT P6SM SKC
     FM300400 VRB03KT P6SM SKC=



000
FTUS46 KLOX 290900 AAA
TAFLAX
TAF AMD
KLAX 290909Z 2909/3012 VRB03KT P6SM SCT200
     FM292000 25012KT P6SM SKC
     FM300300 25007KT P6SM SKC
     FM300900 VRB04KT P6SM SKC=



000
FTUS46 KLOX 290500
TAFSMX
TAF
KSMX 290528Z 2906/3006 VRB03KT P6SM BKN006
     FM290800 VRB03KT 4SM BR OVC004
     FM291100 VRB03KT 1SM BR OVC002
     FM291400 VRB03KT 4SM BR BKN007
     FM291700 28006KT P6SM SKC
     FM292000 30012KT P6SM SKC
     FM300400 VRB03KT P6SM SKC=



000
FTUS46 KLOX 290500
TAFLAX
TAF
KLAX 290528Z 2906/3012 25007KT P6SM SCT150
     FM290800 VRB03KT P6SM SCT200
     FM292000 25012KT P6SM SKC
     FM300300 25007KT P6SM SKC
     FM300900 VRB04KT P6SM SKC=



000
FTUS46 KLOX 290500
TAFPMD
TAF
KPMD 290528Z 2906/3006 23006KT P6SM BKN120
     FM291000 VRB03KT P6SM SCT120
     FM291800 27008KT P6SM SCT200
     FM292200 25015G25KT P6SM SCT200
     FM300400 25015KT P6SM SCT200=



000
FTUS46 KLOX 290500
TAFVNY
TAF
KVNY 290528Z 2906/3006 VRB03KT P6SM SCT150
     FM291800 14010KT P6SM SKC
     FM300400 VRB03KT P6SM SKC=



000
FTUS46 KLOX 290500
TAFLGB
TAF
KLGB 290528Z 2906/3006 VRB03KT P6SM SCT150
     FM291800 21008KT P6SM SKC
     FM292300 30008KT P6SM SKC
     FM300500 VRB03KT P6SM SKC=



000
FTUS46 KLOX 290500
TAFWJF
TAF
KWJF 290528Z 2906/3006 23006KT P6SM BKN120
     FM291000 VRB03KT P6SM SCT120
     FM291800 27008KT P6SM SCT200
     FM292200 25015G25KT P6SM SCT200
     FM300400 25015KT P6SM SCT200=



000
FTUS46 KLOX 290500
TAFSBP
TAF
KSBP 290528Z 2906/3006 VRB03KT P6SM SCT150
     FM291200 VRB03KT 4SM BR BKN004
     FM291600 VRB03KT P6SM SCT008
     FM291800 29006KT P6SM SKC
     FM292100 31012KT P6SM SKC
     FM300400 VRB03KT P6SM SKC=



000
FTUS46 KLOX 290500
TAFBUR
TAF
KBUR 290528Z 2906/3006 VRB03KT P6SM SCT150
     FM291800 17010KT P6SM SKC
     FM300400 VRB03KT P6SM SKC=



000
FTUS46 KLOX 290500
TAFPRB
TAF
KPRB 290528Z 2906/3006 VRB03KT P6SM SCT150
     FM292000 29012KT P6SM SCT200
     FM300500 VRB03KT P6SM SCT200=



000
FTUS46 KLOX 290500
TAFSBA
TAF
KSBA 290528Z 2906/3006 VRB03KT P6SM SCT150
     FM291200 VRB03KT P6SM SCT008
     FM291600 16007KT P6SM SCT200
     FM292100 25010KT P6SM SCT200
     FM300200 VRB03KT P6SM SCT200=



000
FTUS46 KLOX 290400 AAA
TAFLGB
TAF AMD
KLGB 290404Z 2904/2924 29012KT P6SM FEW200
     FM290500 VRB03KT P6SM SCT150
     FM291100 VRB03KT P6SM BKN009
     FM291600 VRB03KT P6SM SCT012 SCT200
     FM291900 21008KT P6SM SKC
     FM292300 29008KT P6SM SKC=



000
FTUS46 KLOX 290400 AAA
TAFLAX
TAF AMD
KLAX 290403Z 2904/3006 26010KT P6SM FEW150
     FM290600 VRB03KT P6SM FEW150
     FM291300 VRB03KT P6SM BKN009
     FM291700 25006KT P6SM SCT200
     FM292000 25012KT P6SM SKC
     FM300300 24006KT P6SM SKC=



000
FTUS46 KLOX 290100 AAA
TAFPRB
TAF AMD
KPRB 290106Z 2901/2924 19012KT P6SM SCT150
     FM290300 21008KT P6SM SCT150
     FM290700 VRB03KT P6SM SCT150
     FM292000 29012KT P6SM SKC=



000
FTUS46 KLOX 282300
TAFLAX
TAF
KLAX 282333Z 2900/3006 26010KT P6SM FEW090 SCT150 SCT250
     FM290600 VRB03KT P6SM SCT150
     FM291300 VRB03KT 4SM BR OVC012
     FM291700 25006KT P6SM SCT200
     FM292000 25012KT P6SM SKC
     FM300300 24006KT P6SM SKC=



000
FTUS46 KLOX 282300
TAFBUR
TAF
KBUR 282333Z 2900/2924 17010KT P6SM FEW150
     FM290400 VRB03KT P6SM SCT150
     FM291800 16008KT P6SM SKC=



000
FTUS46 KLOX 282300
TAFVNY
TAF
KVNY 282333Z 2900/2924 16010KT P6SM FEW150
     FM290400 VRB03KT P6SM SCT150
     FM291800 14007KT P6SM SKC
     FM292200 16012KT P6SM SKC=



000
FTUS46 KLOX 282300
TAFSBP
TAF
KSBP 282333Z 2900/2924 32012KT P6SM VCSH BKN130
     FM290400 VRB03KT P6SM SCT150
     FM291100 VRB03KT 4SM BR BKN004
     FM291600 VRB03KT P6SM SCT008
     FM291800 29006KT P6SM SKC
     FM292100 31012KT P6SM SKC=



000
FTUS46 KLOX 282300
TAFSMX
TAF
KSMX 282333Z 2900/2924 31012KT P6SM BKN150
     FM290400 VRB03KT P6SM SCT150
     FM290800 VRB03KT 5SM BR BKN005
     FM291100 VRB03KT 1SM BR OVC002
     FM291400 VRB03KT 4SM BR BKN007
     FM291700 28005KT P6SM SKC
     FM292000 30012KT P6SM SKC=



000
FTUS46 KLOX 282300
TAFPMD
TAF
KPMD 282333Z 2900/2924 24017G25KT P6SM VCTS SCT060CB BKN120
     FM290300 24012KT P6SM BKN120
     FM290900 21007KT P6SM SCT150
     FM291900 27008KT P6SM SCT200
     FM292200 25015G25KT P6SM SCT200=



000
FTUS46 KLOX 282300
TAFPRB
TAF
KPRB 282333Z 2900/2924 21015G22KT P6SM BKN150
     FM290300 21008KT P6SM SCT150
     FM290700 VRB03KT P6SM SCT150
     FM292000 29012KT P6SM SKC=



000
FTUS46 KLOX 282300
TAFLGB
TAF
KLGB 282333Z 2900/2924 29012KT P6SM BKN150
     FM290500 VRB03KT P6SM SCT150
     FM291100 VRB03KT P6SM OVC012
     FM291600 VRB03KT P6SM SCT018 SCT200
     FM291900 21008KT P6SM SKC
     FM292300 29008KT P6SM SKC=



000
FTUS46 KLOX 282300
TAFWJF
TAF
KWJF 282333Z 2900/2924 24017G25KT P6SM VCTS SCT060CB BKN120
     FM290300 24012KT P6SM BKN120
     FM290900 23008KT P6SM SCT150
     FM292000 24015G25KT P6SM SCT200=



000
FTUS46 KLOX 282300
TAFSBA
TAF
KSBA 282333Z 2900/2924 25008KT P6SM BKN150
     FM290300 VRB03KT P6SM SCT150
     FM291100 VRB03KT P6SM SCT008
     FM291800 18006KT P6SM SCT200
     FM292200 27010KT P6SM SCT200=



000
FTUS46 KLOX 282200 AAA
TAFSBP
TAF AMD
KSBP 282243Z 2823/2918 32012KT P6SM VCSH BKN130
     FM290400 VRB03KT P6SM SCT150
     FM291100 VRB03KT 4SM BR BKN004=



000
FTUS46 KLOX 282000 AAA
TAFLAX
TAF AMD
KLAX 282053Z 2821/2924 26010KT P6SM FEW010 SCT090 BKN250
     FM290600 VRB03KT P6SM SCT150
     FM291300 VRB03KT 4SM BR OVC015
     FM291700 25006KT P6SM SCT150
     FM292000 25012KT P6SM SKC=



000
FTUS46 KLOX 281700 AAA
TAFSMX
TAF AMD
KSMX 281755Z 2818/2918 31003KT P6SM VCSH FEW009 BKN140
     FM281900 29008KT P6SM BKN150
     FM282200 31012KT P6SM BKN150
     FM290400 VRB03KT P6SM SCT150
     FM290800 VRB03KT 5SM BR BKN005=



000
FTUS46 KLOX 281700 RRA
TAFLAX
TAF
KLAX 281746Z 2818/2924 27008KT P6SM VCSH FEW009 SCT090 BKN120
     FM282100 26012KT P6SM BKN150
     FM290600 VRB03KT P6SM SCT150
     FM291300 VRB03KT 4SM BR OVC015
     FM291700 25006KT P6SM SCT150
     FM292000 25012KT P6SM SKC=



000
FTUS46 KLOX 281700 RRA
TAFLGB
TAF
KLGB 281746Z 2818/2918 00000KT P6SM VCSH BKN120
     FM281900 17008KT P6SM BKN120
     FM282200 29008KT P6SM BKN150
     FM290500 VRB03KT P6SM SCT150
     FM291100 VRB03KT 4SM BR OVC015=



000
FTUS46 KLOX 281700 RRA
TAFWJF
TAF
KWJF 281746Z 2818/2918 05004KT P6SM SKC
     FM282000 24017G25KT P6SM VCTS SCT060CB BKN120
     FM290300 24012KT P6SM BKN120=



000
FTUS46 KLOX 281700 RRA
TAFBUR
TAF
KBUR 281746Z 2818/2918 12004KT P6SM VCSH SKC
     FM282200 17010KT P6SM BKN150
     FM290400 VRB03KT P6SM SCT150=



000
FTUS46 KLOX 281700 RRA
TAFVNY
TAF
KVNY 281746Z 2818/2918 17005KT P6SM VCSH SKC
     FM282200 14010KT P6SM BKN150
     FM290400 VRB03KT P6SM SCT150=



000
FTUS46 KLOX 281700 RRA
TAFSMX
TAF
KSMX 281746Z 2818/2918 31004KT 5SM HZ VCSH BKN007 BKN100
     FM281900 29008KT P6SM BKN150
     FM282200 31012KT P6SM BKN150
     FM290400 VRB03KT P6SM SCT150
     FM290800 VRB03KT 5SM BR BKN005=



000
FTUS46 KLOX 281700 RRA
TAFPMD
TAF
KPMD 281746Z 2818/2918 03005KT P6SM FEW120
     FM282000 24017G25KT P6SM VCTS SCT060CB BKN120
     FM290300 24012KT P6SM BKN120=



000
FTUS46 KLOX 281700 RRA
TAFSBA
TAF
KSBA 281746Z 2818/2918 17006KT P6SM VCSH SKC
     FM282100 25008KT P6SM BKN150
     FM290300 VRB03KT P6SM SCT150
     FM291100 VRB03KT P6SM SCT008=



000
FTUS46 KLOX 281700 RRA
TAFSBP
TAF
KSBP 281746Z 2818/2918 00000KT P6SM VCSH OVC130
     FM282000 29010KT P6SM BKN150
     FM290400 VRB03KT P6SM SCT150
     FM291100 VRB03KT 4SM BR BKN004=



000
FTUS46 KLOX 281700 RRA
TAFPRB
TAF
KPRB 281746Z 2818/2918 VRB05KT P6SM SCT150
     FM282000 21015G22KT P6SM BKN150
     FM290300 21008KT P6SM SCT150
     FM290700 VRB03KT P6SM SCT150=



000
FTUS46 KLOX 281500 AAA
TAFSMX
TAF AMD
KSMX 281505Z 2815/2912 32003KT 5SM -RA FEW008 BKN090 BKN110
     FM281630 VRB03KT P6SM BKN080
     FM282200 31012KT P6SM BKN150
     FM290400 VRB03KT P6SM SCT150
     FM290800 VRB03KT 5SM BR BKN005=



000
FTUS46 KLOX 281400 AAA
TAFSBA
TAF AMD
KSBA 281430Z 2815/2912 00000KT 6SM BR SCT007 OVC100
     FM281600 16006KT P6SM VCSH BKN100
     FM282100 25008KT P6SM BKN150
     FM290300 VRB03KT P6SM SCT150
     FM291100 VRB03KT P6SM OVC008=



000
FTUS46 KLOX 281300 AAA
TAFLAX
TAF AMD
KLAX 281306Z 2813/2918 VRB03KT P6SM VCTS SCT010 BKN060CB
     FM281600 25006KT P6SM VCSH BKN100
     FM282100 26012KT P6SM BKN150
     FM290600 VRB03KT P6SM SCT150
     FM291300 VRB03KT 4SM BR OVC015
     FM291700 25006KT P6SM SCT150=



000
FTUS46 KLOX 281300 AAA
TAFLGB
TAF AMD
KLGB 281305Z 2813/2912 VRB03KT P6SM VCTS BKN080CB
     FM281600 20006KT P6SM VCSH BKN100
     FM282200 29008KT P6SM BKN150
     FM290500 VRB03KT P6SM SCT150
     FM291100 VRB03KT 4SM BR OVC015=



000
FTUS46 KLOX 281100
TAFPRB
TAF
KPRB 281124Z 2812/2912 VRB03KT P6SM SCT100 BKN150
     FM282000 21015G22KT P6SM BKN150
     FM290300 21012KT P6SM SCT150
     FM290700 VRB03KT P6SM SCT150=



000
FTUS46 KLOX 281100
TAFPMD
TAF
KPMD 281124Z 2812/2912 22007KT P6SM VCTS SCT060CB BKN100
     FM281500 23012KT P6SM BKN100
     FM282000 24017G25KT P6SM VCTS SCT060CB BKN120
     FM290300 24012KT P6SM BKN120=



000
FTUS46 KLOX 281100
TAFBUR
TAF
KBUR 281124Z 2812/2912 VRB03KT P6SM BKN150
     FM281600 16008KT P6SM VCSH BKN100
     FM282200 17010KT P6SM BKN150
     FM290400 VRB03KT P6SM SCT150=



000
FTUS46 KLOX 281100
TAFSMX
TAF
KSMX 281124Z 2812/2912 VRB03KT P6SM BKN150
     FM282200 31012KT P6SM BKN150
     FM290400 VRB03KT P6SM SCT150
     FM290800 VRB03KT 5SM BR BKN005=



000
FTUS46 KLOX 281100
TAFVNY
TAF
KVNY 281124Z 2812/2912 VRB03KT P6SM BKN150
     FM281600 13008KT P6SM VCSH BKN100
     FM282200 14010KT P6SM BKN150
     FM290400 VRB03KT P6SM SCT150=



000
FTUS46 KLOX 281100
TAFSBA
TAF
KSBA 281124Z 2812/2912 11006KT P6SM BKN008 OVC120
     FM281600 16006KT P6SM VCSH BKN100
     FM282100 25008KT P6SM BKN150
     FM290300 VRB03KT P6SM SCT150
     FM291100 VRB03KT P6SM OVC008=



000
FTUS46 KLOX 281100
TAFLAX
TAF
KLAX 281124Z 2812/2918 VRB03KT P6SM VCTS BKN010 BKN060CB
     FM281600 25006KT P6SM VCSH BKN100
     FM282100 26012KT P6SM BKN150
     FM290600 VRB03KT P6SM SCT150
     FM291300 VRB03KT 4SM BR OVC015
     FM291700 25006KT P6SM SCT150=



000
FTUS46 KLOX 281100
TAFSBP
TAF
KSBP 281124Z 2812/2912 31006KT P6SM SCT150
     FM282000 29010KT P6SM BKN150
     FM290400 VRB03KT P6SM SCT150
     FM290900 VRB03KT 4SM BR OVC004=



000
FTUS46 KLOX 281100
TAFLGB
TAF
KLGB 281124Z 2812/2912 VRB03KT P6SM VCTS BKN010 BKN080CB
     FM281600 20006KT P6SM VCSH BKN100
     FM282200 29008KT P6SM BKN150
     FM290500 VRB03KT P6SM SCT150
     FM291100 VRB03KT 4SM BR OVC015=



000
FTUS46 KLOX 281100
TAFWJF
TAF
KWJF 281124Z 2812/2912 22007KT P6SM VCTS SCT060CB BKN100
     FM281500 23012KT P6SM BKN100
     FM282000 24017G25KT P6SM VCTS SCT060CB BKN120
     FM290300 24012KT P6SM BKN120=



000
FTUS46 KLOX 281100 AAB
TAFSMX
TAF AMD
KSMX 281105Z 2811/2906 VRB03KT P6SM BKN150
     FM282200 31012KT P6SM BKN150
     FM290500 VRB04KT 5SM BR BKN005=



000
FTUS46 KLOX 281100 AAB
TAFSBP
TAF AMD
KSBP 281105Z 2811/2906 31006KT P6SM SCT150
     FM282000 29010KT P6SM BKN150
     FM290400 VRB03KT P6SM SCT150=



000
FTUS46 KLOX 281000 AAC
TAFLAX
TAF AMD
KLAX 281058Z 2811/2912 VRB03KT P6SM VCTS BKN010 BKN060CB
     FM281600 25007KT P6SM VCSH BKN100
     FM282100 26012KT P6SM BKN150
     FM290600 VRB03KT P6SM SCT150=



000
FTUS46 KLOX 281000 AAA
TAFSMX
TAF AMD
KSMX 281005Z 2810/2906 VRB03KT P6SM BKN150
     FM281200 VRB03KT 3SM BR OVC004
     FM281700 VRB03KT P6SM BKN150
     FM282200 31012KT P6SM BKN150
     FM290500 VRB04KT 5SM BR BKN005=



000
FTUS46 KLOX 281000 AAB
TAFLAX
TAF AMD
KLAX 281004Z 2810/2912 VRB03KT P6SM VCTS BKN008 BKN060CB
     FM281600 25007KT P6SM VCSH BKN100
     FM282100 26012KT P6SM BKN150
     FM290600 VRB03KT P6SM SCT150=



000
FTUS46 KLOX 280900 AAA
TAFSBP
TAF AMD
KSBP 280928Z 2809/2906 VRB03KT P6SM SCT150
     FM281200 VRB03KT 2SM BR OVC004
     FM281600 30006KT 6SM BR SCT006 BKN150
     FM282000 29010KT P6SM BKN150
     FM290400 VRB03KT P6SM SCT150=



000
FTUS46 KLOX 280900 AAA
TAFSBA
TAF AMD
KSBA 280928Z 2809/2906 VRB03KT P6SM BKN008 OVC120
     FM281700 16006KT P6SM VCSH BKN100
     FM282100 25008KT P6SM BKN150
     FM290300 VRB03KT P6SM SCT150=



000
FTUS46 KLOX 280900 AAA
TAFLAX
TAF AMD
KLAX 280904Z 2809/2912 25006KT P6SM BKN120
     FM281200 VRB03KT 6SM BR BKN008 OVC100
     FM281600 25007KT P6SM VCSH BKN100
     FM282100 26012KT P6SM BKN150
     FM290600 VRB03KT P6SM SCT150=



000
FTUS46 KLOX 280500
TAFSBA
TAF
KSBA 280530Z 2806/2906 VRB03KT P6SM BKN120
     FM281100 VRB03KT 5SM BR BKN008 OVC120
     FM281700 16006KT P6SM VCSH BKN100
     FM282100 25008KT P6SM BKN150
     FM290300 VRB03KT P6SM SCT150=



000
FTUS46 KLOX 280500
TAFSMX
TAF
KSMX 280530Z 2806/2906 VRB03KT 3SM BR OVC004
     FM281000 VRB03KT 1/4SM FG VV001
     FM281500 VRB03KT 4SM BR OVC003
     FM281700 VRB03KT P6SM BKN150
     FM282200 31012KT P6SM BKN150
     FM290500 VRB04KT 5SM BR BKN005=



000
FTUS46 KLOX 280500
TAFBUR
TAF
KBUR 280530Z 2806/2906 VRB03KT P6SM BKN150
     FM281600 16008KT P6SM VCSH BKN100
     FM282200 17010KT P6SM BKN150
     FM290400 VRB03KT P6SM SCT150=



000
FTUS46 KLOX 280500
TAFLAX
TAF
KLAX 280530Z 2806/2912 26006KT P6SM BKN120
     FM281200 VRB03KT 6SM BR BKN008 OVC100
     FM281600 25007KT P6SM VCSH BKN100
     FM282100 26012KT P6SM BKN150
     FM290600 VRB03KT P6SM SCT150=



000
FTUS46 KLOX 280500
TAFWJF
TAF
KWJF 280530Z 2806/2906 23012KT P6SM VCSH BKN100
     FM280900 22007KT P6SM VCTS SCT060CB BKN100
     FM281500 23012KT P6SM BKN100
     FM282000 24017G25KT P6SM VCTS SCT060CB BKN120
     FM290300 24012KT P6SM BKN120=



000
FTUS46 KLOX 280500
TAFPMD
TAF
KPMD 280530Z 2806/2906 23012KT P6SM VCSH BKN100
     FM280900 22007KT P6SM VCTS SCT060CB BKN100
     FM281500 23012KT P6SM BKN100
     FM282000 24017G25KT P6SM VCTS SCT060CB BKN120
     FM290300 24012KT P6SM BKN120=



000
FTUS46 KLOX 280500
TAFPRB
TAF
KPRB 280530Z 2806/2906 19008KT P6SM BKN150
     FM280900 VRB03KT P6SM SCT150
     FM282000 21015G22KT P6SM BKN150
     FM290300 21012KT P6SM SCT150=



000
FTUS46 KLOX 280500
TAFVNY
TAF
KVNY 280530Z 2806/2906 VRB03KT P6SM BKN150
     FM281600 13008KT P6SM VCSH BKN100
     FM282200 14010KT P6SM BKN150
     FM290400 VRB03KT P6SM SCT150=



000
FTUS46 KLOX 280500
TAFLGB
TAF
KLGB 280530Z 2806/2906 VRB03KT P6SM BKN120
     FM281200 VRB03KT 6SM BR BKN008 OVC100
     FM281600 19008KT P6SM VCSH BKN100
     FM282200 29008KT P6SM BKN150
     FM290500 VRB03KT P6SM SCT150=



000
FTUS46 KLOX 280500
TAFSBP
TAF
KSBP 280530Z 2806/2906 VRB03KT P6SM SCT150
     FM280900 VRB03KT 4SM BR OVC007
     FM281200 VRB03KT 2SM BR OVC004
     FM281600 30006KT 6SM BR SCT006 BKN150
     FM282000 29010KT P6SM BKN150
     FM290400 VRB03KT P6SM SCT150=



000
FTUS46 KLOX 272300 AAA
TAFWJF
TAF AMD
KWJF 272347Z 2800/2824 24020G30KT P6SM VCTS SCT060CB BKN100
     FM280300 24012KT P6SM BKN100
     FM280800 24008KT P6SM BKN150
     FM281800 23012KT P6SM SCT150
     FM282000 25015G22KT P6SM VCTS SCT080CB BKN150=



000
FTUS46 KLOX 272300 AAA
TAFPMD
TAF AMD
KPMD 272346Z 2800/2824 24015G25KT P6SM VCTS SCT060CB BKN100
     FM280300 23012KT P6SM BKN100
     FM280700 20006KT P6SM BKN100
     FM281800 23012KT P6SM SCT150
     FM282000 25015G22KT P6SM VCTS SCT080CB BKN150=



000
FTUS46 KLOX 272300 AAA
TAFVNY
TAF AMD
KVNY 272344Z 2800/2824 14010KT P6SM SCT150
     FM280400 VRB03KT P6SM BKN150
     FM282000 15010KT P6SM SCT150=



000
FTUS46 KLOX 272300 AAA
TAFBUR
TAF AMD
KBUR 272343Z 2800/2824 17010KT P6SM SCT150
     FM280400 VRB03KT P6SM BKN150
     FM281800 15008KT P6SM SCT150=



000
FTUS46 KLOX 272300 RRA
TAFSMX
TAF
KSMX 272341Z 2800/2824 30010KT P6SM BKN150
     FM280300 VRB03KT P6SM SCT150
     FM280600 VRB03KT 2SM BR OVC004
     FM281000 VRB03KT 1/4SM FG VV001
     FM281500 VRB03KT 4SM BR OVC003
     FM281700 VRB03KT P6SM SCT150
     FM282200 31012KT P6SM BKN150=



000
FTUS46 KLOX 272300 RRA
TAFPMD
TAF
KPMD 272341Z 2800/2824 24015G25KT P6SM VCTS SCT060CB BKN100
     FM280300 23012KT P6SM BKN100
     FM280700 20006KT P6SM BKN100=



000
FTUS46 KLOX 272300 RRA
TAFLAX
TAF
KLAX 272341Z 2800/2906 27010KT P6SM SCT150
     FM280600 VRB03KT P6SM OVC007
     FM281500 VRB03KT P6SM SCT010 SCT150
     FM281800 25010KT P6SM SCT150
     FM290500 26005KT P6SM SCT200=



000
FTUS46 KLOX 272300 RRA
TAFSBP
TAF
KSBP 272341Z 2800/2824 30010KT P6SM SCT150
     FM280400 VRB03KT P6SM SCT150
     FM280700 VRB03KT 4SM BR OVC007
     FM281000 VRB03KT 2SM BR OVC004
     FM281600 VRB05KT 6SM BR SCT006 SCT150
     FM282000 27010KT P6SM BKN150=



000
FTUS46 KLOX 272300 RRA
TAFWJF
TAF
KWJF 272341Z 2800/2824 24020G30KT P6SM VCTS SCT060CB BKN100
     FM280300 24012KT P6SM BKN100
     FM280800 24008KT P6SM OVC150=



000
FTUS46 KLOX 272300 RRA
TAFLGB
TAF
KLGB 272341Z 2800/2824 21012KT P6SM SCT150
     FM280400 VRB03KT P6SM BKN150
     FM280800 VRB03KT P6SM OVC007
     FM281500 VRB03KT P6SM SCT010
     FM281800 19007KT P6SM SCT150
     FM282300 26010KT P6SM SCT150=



000
FTUS46 KLOX 272300 RRA
TAFVNY
TAF
KVNY 272341Z 2800/2824 14010KT P6SM VCTS SCT010 BKN080CB BKN150
     FM280400 VRB03KT P6SM BKN150=



000
FTUS46 KLOX 272300 RRA
TAFPRB
TAF
KPRB 272341Z 2800/2824 21015G22KT P6SM FEW250
     FM280200 21010KT P6SM SCT150
     FM280700 VRB03KT P6SM SCT150
     FM282000 22014G22KT P6SM BKN150=



000
FTUS46 KLOX 272300 RRA
TAFBUR
TAF
KBUR 272341Z 2800/2824 17010KT P6SM VCTS SCT010 BKN080CB BKN150
     FM280400 VRB03KT P6SM BKN150=



000
FTUS46 KLOX 272300 RRA
TAFSBA
TAF
KSBA 272341Z 2800/2824 17006KT P6SM SCT150
     FM280300 VRB03KT P6SM BKN150
     FM281000 VRB03KT P6SM OVC007
     FM281300 VRB03KT 6SM BR OVC006
     FM281700 VRB03KT P6SM SCT010 SCT150
     FM282100 24008KT P6SM BKN150=



000
FTUS46 KLOX 272100 AAB
TAFWJF
TAF AMD
KWJF 272105Z 2721/2818 23017G27KT P6SM BKN120
     FM272200 24020G30KT P6SM VCTS SCT060CB BKN100
     FM280300 24012KT P6SM BKN100
     FM280800 24008KT P6SM OVC150=



000
FTUS46 KLOX 272100 AAA
TAFLAX
TAF AMD
KLAX 272102Z 2721/2824 27010KT P6SM VCTS SCT007 BKN060CB OVC120
     FM272300 21012KT P6SM SCT008 BKN070 BKN150
     FM280600 VRB03KT P6SM OVC007
     FM281600 24006KT P6SM OVC010=



000
FTUS46 KLOX 272000 AAA
TAFWJF
TAF AMD
KWJF 272022Z 2720/2818 24017G27KT P6SM BKN120
     FM272200 24020G30KT P6SM VCTS SCT060CB BKN100
     FM280300 24012KT P6SM BKN100
     FM280800 24008KT P6SM OVC150=



000
FTUS46 KLOX 271900 AAA
TAFSBA
TAF AMD
KSBA 271900Z 2719/2818 VRB05KT P6SM SCT007 BKN150
      TEMPO 2719/2720 4SM BR BKN007
     FM272000 25010KT P6SM BKN150
     FM280300 VRB03KT P6SM BKN150
     FM281000 VRB03KT P6SM OVC007
     FM281300 VRB03KT 4SM BR OVC006
     FM281700 VRB03KT 6SM BR BKN010=



000
FTUS46 KLOX 271700 RRA
TAFSBA
TAF
KSBA 271744Z 2718/2818 VRB05KT 2SM BR OVC004
      TEMPO 2718/2720 1SM BR OVC002
     FM272000 25010KT P6SM BKN150
     FM280300 VRB03KT P6SM BKN150
     FM281000 VRB03KT P6SM OVC007
     FM281300 VRB03KT 4SM BR OVC006
     FM281700 VRB03KT 6SM BR BKN010=



000
FTUS46 KLOX 271700 RRA
TAFSBP
TAF
KSBP 271744Z 2718/2818 VRB03KT P6SM SCT004 BKN150
     FM272000 29010KT P6SM SCT150
     FM280400 VRB03KT P6SM SCT150
     FM280700 VRB03KT 4SM BR OVC007
     FM281000 VRB03KT 2SM BR OVC004
     FM281700 VRB05KT 6SM BR SCT006 BKN150=



000
FTUS46 KLOX 271700 RRA
TAFPRB
TAF
KPRB 271744Z 2718/2818 VRB03KT P6SM SCT150
     FM271900 21010KT P6SM SCT150
     FM272200 21015G22KT P6SM SCT150
     FM280200 21008KT P6SM SCT150
     FM280600 VRB03KT P6SM SCT150=



000
FTUS46 KLOX 271700 RRA
TAFSMX
TAF
KSMX 271744Z 2718/2818 VRB05KT P6SM SCT006 BKN150
     FM271900 30010KT P6SM BKN150
     FM280300 VRB03KT P6SM SCT150
     FM280600 VRB03KT 2SM BR OVC004
     FM281000 VRB03KT 1/4SM FG VV001=



000
FTUS46 KLOX 271700 RRA
TAFVNY
TAF
KVNY 271742Z 2718/2818 VRB03KT P6SM BKN150
     FM272100 14010KT P6SM VCTS SCT010 BKN080CB BKN150
     FM280400 VRB03KT P6SM BKN150=



000
FTUS46 KLOX 271700 RRA
TAFBUR
TAF
KBUR 271742Z 2718/2818 14006KT P6SM BKN150
     FM272100 17010KT P6SM VCTS SCT010 BKN080CB BKN150
     FM280400 VRB03KT P6SM BKN150=



000
FTUS46 KLOX 271700 RRA
TAFPMD
TAF
KPMD 271742Z 2718/2818 VRB05KT P6SM BKN150
     FM271900 23012KT P6SM BKN120
     FM272100 24015G25KT P6SM VCTS SCT060CB BKN100
     FM280300 23012KT P6SM BKN100
     FM280700 20006KT P6SM BKN100=



000
FTUS46 KLOX 271700 RRA
TAFWJF
TAF
KWJF 271742Z 2718/2818 VRB05KT P6SM BKN120
     FM272000 24012KT P6SM BKN120
     FM272100 24017G27KT P6SM VCTS SCT060CB BKN100
     FM280000 24020G30KT P6SM VCTS SCT060CB BKN100
     FM280300 24012KT P6SM BKN100
     FM280800 24008KT P6SM OVC150=



000
FTUS46 KLOX 271700 RRA
TAFLGB
TAF
KLGB 271742Z 2718/2818 VRB05KT P6SM BKN150
     FM272000 28008KT P6SM VCTS SCT008 BKN080CB OVC150
     FM272300 21012KT P6SM SCT008 BKN080 BKN150
     FM280400 VRB03KT P6SM BKN150
     FM280800 VRB03KT P6SM OVC007=



000
FTUS46 KLOX 271700
TAFLAX
TAF
KLAX 271739Z 2718/2824 27007KT P6SM SCT008 BKN150
     FM272000 26012KT P6SM VCTS SCT007 BKN080CB OVC150
     FM272300 21012KT P6SM SCT008 BKN080 BKN150
     FM280600 VRB03KT P6SM OVC007
     FM281600 24006KT P6SM OVC010=



000
FTUS46 KLOX 271600 AAC
TAFSMX
TAF AMD
KSMX 271615Z 2716/2812 VRB03KT 6SM BR SCT006 BKN150
     FM271900 30010KT P6SM BKN150
     FM280300 VRB03KT P6SM SCT150
     FM280600 VRB03KT 2SM BR OVC004
     FM281000 VRB03KT 1/4SM FG VV001=



000
FTUS46 KLOX 271600 AAC
TAFSBP
TAF AMD
KSBP 271605Z 2716/2812 VRB03KT P6SM SCT004 BKN150
     FM272000 29010KT P6SM SCT150
     FM280400 VRB03KT P6SM SCT150
     FM280700 VRB03KT 4SM BR OVC007
     FM281000 VRB03KT 2SM BR OVC004=



000
FTUS46 KLOX 271600 AAC
TAFSBP
TAF AMD
KSBP 271605Z 2716/2812 VRB03KT P6SM SCT004 BKN150
     FM272000 29010KT P6SM SCT150
     FM280400 VRB03KT P6SM SCT150
     FM280700 VRB03KT 4SM BR OVC007
     FM281000 VRB03KT 2SM BR OVC004=



000
FTUS46 KLOX 271500 AAB
TAFSMX
TAF AMD
KSMX 271548Z 2716/2812 VRB03KT 3SM BR OVC002
      TEMPO 2716/2717 5SM BR BKN006
     FM271900 30010KT P6SM SCT150
     FM280300 VRB03KT P6SM SCT150
     FM280600 VRB03KT 2SM BR OVC004
     FM281000 VRB03KT 1/4SM FG VV001=



000
FTUS46 KLOX 271500 AAD
TAFSBA
TAF AMD
KSBA 271541Z 2716/2812 VRB05KT 1/2SM FG OVC002
      TEMPO 2716/2718 2SM BR OVC006
     FM271800 16008KT 5SM BR BKN008
     FM272000 25010KT P6SM BKN150
     FM280300 VRB03KT P6SM BKN150
     FM281000 VRB03KT P6SM OVC007=



000
FTUS46 KLOX 271500 AAA
TAFSMX
TAF AMD
KSMX 271507Z 2715/2812 VRB03KT 1/4SM FG VV001
     FM271700 VRB03KT 2SM BR BKN003
     FM271900 30010KT P6SM SCT150
     FM280300 VRB03KT P6SM SCT150
     FM280600 VRB03KT 2SM BR OVC004
     FM281000 VRB03KT 1/4SM FG VV001=



000
FTUS46 KLOX 271500 AAB
TAFSBP
TAF AMD
KSBP 271507Z 2715/2812 VRB03KT 1/2SM FG VV002
     FM271600 VRB03KT 2SM BR BKN004
     FM271800 VRB03KT P6SM SCT150
     FM272000 29010KT P6SM SCT150
     FM280400 VRB03KT P6SM SCT150
     FM280700 VRB03KT 4SM BR OVC007
     FM281000 VRB03KT 2SM BR OVC004=



000
FTUS46 KLOX 271500 AAB
TAFLAX
TAF AMD
KLAX 271506Z 2715/2818 27007KT P6SM SCT006 OVC150
     FM271800 26012KT P6SM SCT007 BKN150
     FM280600 VRB03KT P6SM OVC007
     FM281600 24006KT P6SM OVC010=



000
FTUS46 KLOX 271400 AAC
TAFSBA
TAF AMD
KSBA 271434Z 2715/2812 VRB03KT 1/2SM FG OVC004
      TEMPO 2715/2716 2SM BR OVC006
     FM271600 11005KT 5SM BR BKN008
     FM271800 16008KT P6SM BKN150
     FM272100 25010KT P6SM BKN150
     FM280300 VRB03KT P6SM BKN150
     FM281000 VRB03KT P6SM OVC007=



000
FTUS46 KLOX 271400 AAA
TAFSBP
TAF AMD
KSBP 271416Z 2714/2812 VRB03KT 1/2SM FG VV002
     FM271500 VRB03KT 2SM BR BKN004
     FM271700 VRB03KT P6SM SCT150
     FM271900 29010KT P6SM SCT150
     FM280400 VRB03KT P6SM SCT150
     FM280700 VRB03KT 4SM BR OVC007
     FM281000 VRB03KT 2SM BR OVC004=



000
FTUS46 KLOX 271400 AAB
TAFSBA
TAF AMD
KSBA 271416Z 2714/2812 VRB03KT 2SM BR OVC004
     FM271500 11005KT 5SM BR BKN008
     FM271800 16008KT P6SM BKN150
     FM272100 25010KT P6SM BKN150
     FM280300 VRB03KT P6SM BKN150
     FM281000 VRB03KT P6SM OVC007=



000
FTUS46 KLOX 271400 AAA
TAFLGB
TAF AMD
KLGB 271400Z 2714/2812 VRB05KT P6SM BKN120
     FM280000 28008KT P6SM BKN120
     FM280400 VRB03KT P6SM SCT120
     FM280800 VRB03KT P6SM OVC007=



000
FTUS46 KLOX 271300 AAA
TAFLAX
TAF AMD
KLAX 271333Z 2714/2818 27007KT P6SM SCT006 BKN120
      TEMPO 2715/2717 6SM BR BKN007
     FM271800 26012KT P6SM SCT007 BKN120
     FM280600 VRB03KT P6SM OVC007
     FM281600 24006KT P6SM OVC010=



000
FTUS46 KLOX 271200 AAA
TAFSBA
TAF AMD
KSBA 271233Z 2713/2812 VRB03KT 5SM BR OVC004
     FM271600 11005KT P6SM BKN008
     FM271800 16008KT P6SM BKN150
     FM272100 25010KT P6SM BKN150
     FM280300 VRB03KT P6SM BKN150
     FM281000 VRB03KT P6SM OVC007=



000
FTUS46 KLOX 271100
TAFPMD
TAF
KPMD 271125Z 2712/2812 21008KT P6SM BKN120
     FM271800 23012KT P6SM BKN120
     FM272100 24015G22KT P6SM VCTS SCT060CB BKN100
     FM280300 23012KT P6SM BKN100
     FM280700 20006KT P6SM BKN100=



000
FTUS46 KLOX 271100
TAFLAX
TAF
KLAX 271125Z 2712/2818 28006KT P6SM OVC006
     FM271600 26006KT 6SM BR BKN007
     FM271800 26012KT P6SM SCT007 BKN120
     FM280600 VRB03KT P6SM OVC007
     FM281600 24006KT P6SM OVC010=



000
FTUS46 KLOX 271100
TAFPRB
TAF
KPRB 271125Z 2712/2812 VRB03KT P6SM SCT150
     FM271900 21010KT P6SM SCT150
     FM272200 21015G22KT P6SM SCT150
     FM280200 21008KT P6SM SCT150
     FM280600 VRB03KT P6SM SCT150=



000
FTUS46 KLOX 271100
TAFBUR
TAF
KBUR 271125Z 2712/2812 14006KT P6SM BKN150
     FM272000 17010KT P6SM BKN120
     FM280400 VRB03KT P6SM BKN120=



000
FTUS46 KLOX 271100
TAFVNY
TAF
KVNY 271125Z 2712/2812 VRB03KT P6SM BKN150
     FM272000 14010KT P6SM SCT120
     FM280400 VRB03KT P6SM SCT120=



000
FTUS46 KLOX 271100
TAFSBP
TAF
KSBP 271125Z 2712/2812 VRB03KT 1SM BR OVC002
     FM271500 VRB03KT 3SM BR BKN004
     FM271700 VRB03KT P6SM SCT150
     FM271900 29010KT P6SM SCT150
     FM280400 VRB03KT P6SM SCT150
     FM280700 VRB03KT 4SM BR OVC007
     FM281000 VRB03KT 2SM BR OVC004=



000
FTUS46 KLOX 271100
TAFSMX
TAF
KSMX 271125Z 2712/2812 VRB03KT 1/4SM FG VV001
     FM271500 VRB03KT 2SM BR BKN003
     FM271700 VRB03KT P6SM SCT150
     FM271900 30010KT P6SM SCT150
     FM280300 VRB03KT P6SM SCT150
     FM280600 VRB03KT 2SM BR OVC004
     FM281000 VRB03KT 1/4SM FG VV001=



000
FTUS46 KLOX 271100
TAFWJF
TAF
KWJF 271125Z 2712/2812 24006KT P6SM BKN120
     FM271800 24012KT P6SM BKN120
     FM272100 24017G25KT P6SM VCTS SCT060CB BKN100
     FM280000 24020G30KT P6SM VCTS SCT060CB BKN100
     FM280300 24012KT P6SM BKN100
     FM280800 24008KT P6SM OVC150=



000
FTUS46 KLOX 271100
TAFLGB
TAF
KLGB 271125Z 2712/2812 VRB03KT P6SM OVC150
     FM271400 VRB03KT 5SM BR OVC007
     FM271700 19008KT P6SM BKN120
     FM280000 28008KT P6SM BKN120
     FM280400 VRB03KT P6SM SCT120
     FM280800 VRB03KT P6SM OVC007=



000
FTUS46 KLOX 271100
TAFSBA
TAF
KSBA 271125Z 2712/2812 VRB03KT P6SM OVC006
     FM271600 11005KT P6SM BKN010
     FM271800 16008KT P6SM BKN150
     FM272100 25010KT P6SM BKN150
     FM280300 VRB03KT P6SM BKN150
     FM281000 VRB03KT P6SM OVC007=



000
FTUS46 KLOX 271100 AAB
TAFLGB
TAF AMD
KLGB 271104Z 2711/2806 VRB03KT P6SM OVC150
     FM271300 VRB03KT 5SM BR OVC007
     FM271600 17006KT P6SM SCT009
     FM271800 19008KT P6SM BKN120
     FM280000 28008KT P6SM BKN120
     FM280400 VRB03KT P6SM SCT120=



000
FTUS46 KLOX 271000 AAA
TAFSBP
TAF AMD
KSBP 271002Z 2710/2806 VRB03KT 1SM BR OVC002
     FM271500 VRB03KT 3SM BR BKN004
     FM271600 VRB03KT P6SM SCT150
     FM271900 29010KT P6SM SCT150
     FM280400 VRB03KT P6SM SCT150=



000
FTUS46 KLOX 270800 AAA
TAFLGB
TAF AMD
KLGB 270851Z 2709/2806 VRB03KT P6SM SCT150
     FM271100 VRB03KT 5SM BR OVC007
     FM271600 17006KT P6SM SCT009
     FM271800 19008KT P6SM BKN120
     FM280000 28008KT P6SM BKN120
     FM280400 VRB03KT P6SM SCT120=



000
FTUS46 KLOX 270800 AAB
TAFLAX
TAF AMD
KLAX 270851Z 2709/2812 28006KT P6SM SCT007 BKN150
     FM271100 VRB03KT 6SM BR OVC007
     FM271300 VRB03KT 4SM BR OVC005
     FM271600 26006KT 6SM BR BKN007
     FM271800 26011KT P6SM SCT007 BKN120
     FM280600 VRB03KT P6SM OVC007=



000
FTUS46 KLOX 270800 AAC
TAFSMX
TAF AMD
KSMX 270808Z 2708/2806 VRB03KT 1/4SM FG VV001
     FM271500 VRB03KT 2SM BR BKN003
     FM271700 VRB03KT P6SM SCT150
     FM271900 30010KT P6SM SCT150
     FM280300 VRB04KT P6SM SCT150=



000
FTUS46 KLOX 270800 AAA
TAFLAX
TAF AMD
KLAX 270800Z 2708/2812 25006KT P6SM SCT007 BKN150
     FM270900 VRB03KT 6SM BR OVC007
     FM271100 VRB03KT 4SM BR OVC005
     FM271600 26006KT 6SM BR BKN007
     FM271800 26011KT P6SM SCT007 BKN120
     FM280600 VRB03KT P6SM OVC007=



000
FTUS46 KLOX 270700 AAB
TAFSMX
TAF AMD
KSMX 270737Z 2708/2806 VRB03KT 2SM BR BKN003
     FM271100 VRB03KT 1/4SM FG VV001
     FM271500 VRB03KT 2SM BR BKN003
     FM271700 VRB03KT P6SM SCT150
     FM271900 30010KT P6SM SCT150
     FM280300 VRB04KT P6SM SCT150=



000
FTUS46 KLOX 270600 AAA
TAFSMX
TAF AMD
KSMX 270640Z 2707/2806 VRB03KT 4SM HZ SCT150
     FM271700 VRB03KT P6SM SCT150
     FM271900 30010KT P6SM SCT150
     FM280300 VRB04KT P6SM SCT150=



000
FTUS46 KLOX 270500
TAFLAX
TAF
KLAX 270530Z 2706/2812 25006KT P6SM SCT007 BKN150
     FM270700 VRB03KT 6SM BR OVC007
     FM271100 VRB03KT 4SM BR OVC005
     FM271600 26006KT 6SM BR BKN007
     FM271800 26011KT P6SM SCT007 BKN120
     FM280600 VRB03KT P6SM OVC007=



000
FTUS46 KLOX 270500
TAFLGB
TAF
KLGB 270530Z 2706/2806 VRB03KT P6SM SCT150
     FM270900 VRB03KT 5SM BR OVC007
     FM271600 17006KT P6SM SCT009
     FM271800 19008KT P6SM BKN120
     FM280000 28008KT P6SM BKN120
     FM280400 VRB03KT P6SM SCT120=



000
FTUS46 KLOX 270500
TAFBUR
TAF
KBUR 270530Z 2706/2806 14006KT P6SM SCT150
     FM272000 17010KT P6SM BKN120
     FM280400 VRB03KT P6SM BKN120=



000
FTUS46 KLOX 270500
TAFPMD
TAF
KPMD 270530Z 2706/2806 23015KT P6SM BKN150
     FM270900 19007KT P6SM BKN120
     FM271800 23010KT P6SM BKN120
     FM272100 24015G22KT P6SM VCTS SCT060CB BKN100
     FM280300 23012KT P6SM BKN100=



000
FTUS46 KLOX 270500
TAFSBP
TAF
KSBP 270530Z 2706/2806 VRB03KT P6SM SCT150
     FM270800 VRB03KT 6SM BR BKN005
     FM271200 VRB03KT 2SM BR OVC003
     FM271500 VRB03KT 4SM BR BKN005
     FM271600 VRB03KT P6SM SCT150
     FM271900 29010KT P6SM SCT150
     FM280400 VRB03KT P6SM SCT150=



000
FTUS46 KLOX 270500
TAFSMX
TAF
KSMX 270530Z 2706/2806 VRB03KT 6SM HZ BKN005
     FM270800 VRB03KT 2SM BR OVC003
     FM271000 VRB03KT 1/2SM FG VV001
     FM271500 VRB03KT 3SM BR BKN005
     FM271700 VRB03KT P6SM SCT150
     FM271900 30010KT P6SM SCT150
     FM280300 VRB04KT P6SM SCT150=



000
FTUS46 KLOX 270500
TAFSBA
TAF
KSBA 270530Z 2706/2806 VRB03KT P6SM SCT007 SCT150
     FM270800 09005KT 3SM BR OVC007
     FM271600 11005KT 5SM HZ BKN010
     FM271800 16007KT P6SM BKN150
     FM272100 25010KT P6SM BKN150
     FM280300 VRB03KT P6SM BKN150=



000
FTUS46 KLOX 270500
TAFVNY
TAF
KVNY 270530Z 2706/2806 VRB05KT P6SM SCT150
     FM272000 14010KT P6SM SCT120
     FM280400 VRB04KT P6SM SCT120=



000
FTUS46 KLOX 270500
TAFWJF
TAF
KWJF 270530Z 2706/2806 23015KT P6SM BKN150
     FM270900 19007KT P6SM BKN120
     FM271800 23010KT P6SM BKN120
     FM272100 24017G25KT P6SM VCTS SCT060CB BKN100
     FM280300 23012KT P6SM BKN100=



000
FTUS46 KLOX 270500
TAFPRB
TAF
KPRB 270530Z 2706/2806 21007KT P6SM BKN200
     FM270800 VRB03KT P6SM SCT150
     FM271900 21010KT P6SM SCT150
     FM272200 21015G22KT P6SM SCT150
     FM280200 21008KT P6SM SCT150=



000
FTUS46 KLOX 270200 AAA
TAFLAX
TAF AMD
KLAX 270257Z 2703/2806 25007KT P6SM SCT007 SCT150
     FM270500 VRB03KT 5SM BR OVC006
     FM270800 VRB03KT 2SM BR OVC004
     FM271600 VRB03KT 6SM BR BKN007
     FM271800 26011KT P6SM SCT007 BKN120=



    US Dept of Commerce
    National Oceanic and Atmospheric Administration
    National Weather Service
    1325 East West Highway
    Silver Spring, MD 20910
    Page Author: NWS Internet Services Team
Disclaimer
Information Quality
Credits
Glossary
Privacy Policy
Freedom of Information Act (FOIA)
About Us
Career Opportunities